Time;durP1;ratioP1;P1;durP2;ratioP2;P2;SDS_P1;SDS_P2;PMS_P1;PMS_P2;Temp;Humidity;BMP_temperature;BMP_pressure;BME280_temperature;BME280_humidity;BME280_pressure;Samples;Min_cycle;Max_cycle;Signal;HPM_P1;HPM_P2
2023/03/12 00:01:21;;;;;;;8.95;5.40;;;-1.50;99.90;;;;;;4989387;28;20072;-85
2023/03/12 00:03:48;;;;;;;7.15;5.22;;;-1.50;99.90;;;;;;4988593;28;20054;-85
2023/03/12 00:06:14;;;;;;;10.38;6.15;;;-1.60;99.90;;;;;;4987579;28;20050;-85
2023/03/12 00:08:40;;;;;;;9.30;5.88;;;-1.60;99.90;;;;;;4986944;28;20053;-85
2023/03/12 00:11:15;;;;;;;8.43;5.63;;;-1.60;99.90;;;;;;4988355;28;20046;-84
2023/03/12 00:13:41;;;;;;;7.40;5.20;;;-1.60;99.90;;;;;;4986763;28;20508;-84
2023/03/12 00:16:10;;;;;;;8.50;5.05;;;-1.60;99.90;;;;;;4988088;28;20046;-84
2023/03/12 00:18:36;;;;;;;7.53;5.50;;;-1.60;99.90;;;;;;4987977;28;20049;-84
2023/03/12 00:21:02;;;;;;;10.43;6.15;;;-1.70;99.90;;;;;;4970712;28;20046;-84
2023/03/12 00:23:27;;;;;;;7.78;5.38;;;-1.70;99.90;;;;;;4986716;28;20043;-84
2023/03/12 00:25:53;;;;;;;8.63;6.20;;;-1.70;99.90;;;;;;4986096;28;20050;-85
2023/03/12 00:28:19;;;;;;;9.20;5.78;;;-1.70;99.90;;;;;;4986759;28;20361;-85
2023/03/12 00:30:45;;;;;;;9.65;6.68;;;-1.70;99.90;;;;;;4987928;28;20051;-85
2023/03/12 00:33:11;;;;;;;9.40;5.95;;;-1.70;99.90;;;;;;4983634;28;20493;-84
2023/03/12 00:35:38;;;;;;;9.65;5.35;;;-1.70;99.90;;;;;;4985494;28;20493;-84
2023/03/12 00:38:04;;;;;;;7.03;5.05;;;-1.00;99.90;;;;;;4989325;28;20050;-85
2023/03/12 00:40:29;;;;;;;8.73;5.72;;;-1.70;99.90;;;;;;4982340;28;20680;-84
2023/03/12 00:42:55;;;;;;;7.50;5.18;;;-1.70;99.90;;;;;;4991427;28;20065;-84
2023/03/12 00:45:21;;;;;;;9.50;5.82;;;-1.80;99.90;;;;;;4987835;28;20054;-84
2023/03/12 00:47:46;;;;;;;11.75;5.63;;;-1.80;99.90;;;;;;4981016;28;20464;-84
2023/03/12 00:50:12;;;;;;;8.35;5.47;;;-1.80;99.90;;;;;;4992025;28;20043;-85
2023/03/12 00:52:37;;;;;;;9.75;5.70;;;-1.80;99.90;;;;;;4991503;28;20051;-84
2023/03/12 00:55:03;;;;;;;10.40;6.82;;;-1.80;99.90;;;;;;4990386;28;20164;-84
2023/03/12 00:57:29;;;;;;;9.05;5.03;;;-1.70;99.90;;;;;;4974825;28;20054;-84
2023/03/12 00:59:55;;;;;;;8.07;5.60;;;-1.80;99.90;;;;;;4992343;28;20134;-84
2023/03/12 01:02:22;;;;;;;10.90;5.43;;;-1.70;99.90;;;;;;4991737;28;20050;-85
2023/03/12 01:04:48;;;;;;;8.60;5.38;;;-1.70;99.90;;;;;;4974553;28;20159;-84
2023/03/12 01:07:14;;;;;;;7.35;5.28;;;-1.70;99.90;;;;;;4991315;28;20207;-84
2023/03/12 01:09:39;;;;;;;7.95;6.05;;;-1.70;99.90;;;;;;4990755;28;20481;-84
2023/03/12 01:12:05;;;;;;;11.27;5.80;;;-1.70;99.90;;;;;;4990420;28;20047;-84
2023/03/12 01:14:31;;;;;;;8.25;5.43;;;-1.70;99.90;;;;;;4990291;28;20050;-84
2023/03/12 01:16:56;;;;;;;8.48;5.20;;;-1.80;99.90;;;;;;4989866;28;20049;-84
2023/03/12 01:19:22;;;;;;;9.45;5.07;;;-1.70;99.90;;;;;;4991601;28;20089;-84
2023/03/12 01:21:47;;;;;;;10.25;5.90;;;-1.60;99.90;;;;;;4991709;28;20518;-84
2023/03/12 01:24:13;;;;;;;8.98;5.80;;;-1.60;99.90;;;;;;4990532;28;20057;-84
2023/03/12 01:26:39;;;;;;;7.72;5.28;;;-1.50;99.90;;;;;;4991950;28;20053;-84
2023/03/12 01:29:04;;;;;;;7.85;5.38;;;-1.50;99.90;;;;;;4992528;28;20804;-84
2023/03/12 01:31:30;;;;;;;9.50;6.18;;;-1.40;99.90;;;;;;4990245;28;20057;-85
2023/03/12 01:33:56;;;;;;;9.18;5.60;;;-1.40;99.90;;;;;;4989905;28;20133;-85
2023/03/12 01:36:29;;;;;;;9.95;5.53;;;-1.40;99.90;;;;;;4990261;28;20516;-85
2023/03/12 01:38:58;;;;;;;9.30;5.90;;;-1.40;99.90;;;;;;4990765;28;20508;-85
2023/03/12 01:41:26;;;;;;;7.53;4.80;;;-1.30;99.90;;;;;;4991409;28;20054;-84
2023/03/12 01:43:51;;;;;;;10.85;6.15;;;-1.30;99.90;;;;;;4991414;28;20050;-84
2023/03/12 01:46:23;;;;;;;8.52;5.78;;;-1.20;99.90;;;;;;4990657;28;20374;-85
2023/03/12 01:48:56;;;;;;;7.60;5.57;;;-1.20;99.90;;;;;;4990701;28;20054;-84
2023/03/12 01:51:26;;;;;;;7.90;5.47;;;-1.20;99.90;;;;;;4989932;28;20050;-84
2023/03/12 01:53:56;;;;;;;11.15;5.57;;;-1.20;99.90;;;;;;4989399;28;20158;-84
2023/03/12 01:56:26;;;;;;;12.70;5.78;;;-1.20;99.90;;;;;;4990581;28;20065;-84
2023/03/12 01:58:54;;;;;;;8.52;5.93;;;-1.10;99.90;;;;;;4989824;28;20447;-84
2023/03/12 02:01:21;;;;;;;9.65;5.43;;;-1.10;99.90;;;;;;4990890;28;20053;-84
2023/03/12 02:03:50;;;;;;;10.23;6.07;;;-1.10;99.90;;;;;;4989136;28;20055;-84
2023/03/12 02:06:21;;;;;;;12.80;6.20;;;-1.10;99.90;;;;;;4990854;28;20088;-84
2023/03/12 02:08:47;;;;;;;10.15;5.95;;;-1.00;99.90;;;;;;4988967;28;20122;-84
2023/03/12 02:11:12;;;;;;;10.05;6.45;;;-1.00;99.90;;;;;;4988886;28;20034;-85
2023/03/12 02:13:38;;;;;;;7.78;5.47;;;-1.00;99.90;;;;;;4989780;28;20058;-85
2023/03/12 02:16:05;;;;;;;8.07;5.07;;;-1.00;99.90;;;;;;4989184;28;20338;-85
2023/03/12 02:18:35;;;;;;;7.10;5.40;;;-1.00;99.90;;;;;;4990252;28;20726;-85
2023/03/12 02:21:13;;;;;;;9.23;5.38;;;-1.00;99.90;;;;;;4989786;28;20057;-84
2023/03/12 02:23:47;;;;;;;12.65;5.30;;;-0.90;99.90;;;;;;4988449;28;20093;-84
2023/03/12 02:26:14;;;;;;;8.38;5.03;;;-0.90;99.90;;;;;;4970768;28;20049;-85
2023/03/12 02:28:45;;;;;;;8.95;5.28;;;-0.90;99.90;;;;;;4980248;28;20523;-85
2023/03/12 02:31:16;;;;;;;7.03;5.10;;;-0.90;99.90;;;;;;4989342;28;20073;-85
2023/03/12 02:33:41;;;;;;;6.18;4.40;;;-0.80;99.90;;;;;;4989534;28;20092;-84
2023/03/12 02:36:08;;;;;;;7.78;5.40;;;-0.80;99.90;;;;;;4990536;28;20074;-85
2023/03/12 02:38:41;;;;;;;8.57;4.88;;;-0.80;99.90;;;;;;4988353;28;20054;-84
2023/03/12 02:41:26;;;;;;;7.07;4.95;;;-0.80;99.90;;;;;;4988783;28;20142;-84
2023/03/12 02:44:15;;;;;;;8.85;5.30;;;-0.80;99.90;;;;;;4989595;28;20124;-85
2023/03/12 02:46:55;;;;;;;6.65;4.95;;;-0.80;99.90;;;;;;4988804;28;20057;-84
2023/03/12 02:49:23;;;;;;;9.38;5.40;;;-0.70;99.90;;;;;;4970950;28;20057;-85
2023/03/12 02:51:52;;;;;;;9.35;4.97;;;-0.70;99.90;;;;;;4987757;28;20148;-85
2023/03/12 02:54:18;;;;;;;8.02;4.78;;;-0.70;99.90;;;;;;4982807;28;20147;-85
2023/03/12 02:56:45;;;;;;;7.70;4.72;;;-0.60;99.90;;;;;;4987986;28;20089;-85
2023/03/12 02:59:13;;;;;;;7.28;4.65;;;-0.60;99.90;;;;;;4975167;28;20061;-85
2023/03/12 03:01:39;;;;;;;7.65;5.07;;;-0.60;99.90;;;;;;4986469;28;20053;-84
2023/03/12 03:04:06;;;;;;;6.57;5.10;;;-0.50;99.90;;;;;;4989574;28;20038;-85
2023/03/12 03:06:33;;;;;;;8.38;4.90;;;-0.50;99.90;;;;;;4988154;28;20047;-85
2023/03/12 03:08:58;;;;;;;8.73;5.22;;;-0.50;99.90;;;;;;4988859;28;20043;-85
2023/03/12 03:11:24;;;;;;;13.90;5.47;;;-0.50;99.90;;;;;;4988885;28;20042;-85
2023/03/12 03:13:51;;;;;;;7.07;5.10;;;-0.40;99.90;;;;;;4989893;28;20058;-85
2023/03/12 03:16:17;;;;;;;7.40;4.50;;;-0.40;99.90;;;;;;4987901;28;20409;-85
2023/03/12 03:18:42;;;;;;;6.55;4.65;;;-0.40;99.90;;;;;;4988381;28;20046;-85
2023/03/12 03:21:09;;;;;;;8.55;5.00;;;-0.40;99.90;;;;;;4985076;28;20172;-85
2023/03/12 03:23:35;;;;;;;8.80;5.25;;;-0.40;99.90;;;;;;4983650;28;20046;-85
2023/03/12 03:26:01;;;;;;;9.48;5.28;;;-0.30;99.90;;;;;;4957151;28;20038;-85
2023/03/12 03:28:28;;;;;;;8.95;5.72;;;0.10;99.90;;;;;;4989222;28;20050;-85
2023/03/12 03:31:00;;;;;;;7.82;5.45;;;-0.30;99.90;;;;;;4985908;28;20069;-85
2023/03/12 03:33:28;;;;;;;7.82;5.32;;;-0.30;99.90;;;;;;4988396;28;20039;-85
2023/03/12 03:35:54;;;;;;;9.38;5.43;;;-0.20;99.90;;;;;;4987754;28;20089;-85
2023/03/12 03:38:21;;;;;;;8.27;5.20;;;-0.20;99.90;;;;;;4987968;28;20158;-85
2023/03/12 03:40:47;;;;;;;7.38;5.30;;;-0.20;99.90;;;;;;4988673;28;20505;-85
2023/03/12 03:43:13;;;;;;;7.93;5.43;;;-0.10;99.90;;;;;;4988143;28;20050;-85
2023/03/12 03:45:38;;;;;;;7.85;5.15;;;-0.10;99.90;;;;;;4988273;28;20054;-85
2023/03/12 03:48:04;;;;;;;7.18;5.68;;;-0.10;99.90;;;;;;4987638;28;20390;-85
2023/03/12 03:50:30;;;;;;;7.53;5.30;;;-0.10;99.90;;;;;;4975838;28;20051;-85
2023/03/12 03:52:56;;;;;;;10.95;5.35;;;-0.10;99.90;;;;;;4983110;28;20056;-85
2023/03/12 03:55:21;;;;;;;6.32;4.55;;;0.00;99.90;;;;;;4985982;28;20389;-85
2023/03/12 03:57:47;;;;;;;8.45;5.25;;;0.00;99.90;;;;;;4988890;28;20100;-85
2023/03/12 04:00:16;;;;;;;10.85;5.13;;;0.10;99.90;;;;;;4986329;28;20053;-85
2023/03/12 04:02:43;;;;;;;8.80;5.25;;;0.10;99.90;;;;;;4987995;28;20046;-85
2023/03/12 04:05:09;;;;;;;6.57;5.15;;;0.10;99.90;;;;;;4980043;28;20055;-85
2023/03/12 04:07:35;;;;;;;10.88;4.75;;;0.10;99.90;;;;;;4977618;28;20042;-85
2023/03/12 04:10:02;;;;;;;5.95;4.85;;;0.10;99.90;;;;;;4984081;28;20057;-85
2023/03/12 04:12:28;;;;;;;6.50;4.70;;;0.20;99.90;;;;;;4985988;28;20035;-85
2023/03/12 04:14:54;;;;;;;7.13;5.03;;;0.20;99.90;;;;;;4981244;28;20105;-85
2023/03/12 04:17:20;;;;;;;8.15;5.60;;;0.20;99.90;;;;;;4986427;28;20046;-85
2023/03/12 04:19:46;;;;;;;8.15;4.90;;;0.20;99.90;;;;;;4987586;28;20046;-85
2023/03/12 04:22:11;;;;;;;9.02;5.07;;;0.20;99.90;;;;;;4982526;28;20049;-85
2023/03/12 04:24:37;;;;;;;8.00;5.38;;;0.20;99.90;;;;;;4986072;28;20108;-86
2023/03/12 04:27:03;;;;;;;8.85;5.70;;;0.20;99.90;;;;;;4987774;28;20053;-85
2023/03/12 04:29:28;;;;;;;7.25;5.13;;;0.20;99.90;;;;;;4987886;28;20038;-85
2023/03/12 04:31:54;;;;;;;8.32;5.03;;;0.20;99.90;;;;;;4984514;28;20038;-85
2023/03/12 04:34:20;;;;;;;10.68;5.65;;;0.30;99.90;;;;;;4987514;28;20128;-86
2023/03/12 04:36:46;;;;;;;7.68;5.63;;;0.30;99.90;;;;;;4967889;28;20045;-85
2023/03/12 04:39:13;;;;;;;7.78;5.30;;;0.30;99.90;;;;;;4987661;28;20089;-85
2023/03/12 04:41:38;;;;;;;8.70;5.35;;;0.30;99.90;;;;;;4985494;28;20357;-85
2023/03/12 04:44:04;;;;;;;6.55;5.30;;;0.30;99.90;;;;;;4985796;28;20056;-85
2023/03/12 04:46:30;;;;;;;10.85;5.60;;;0.30;99.90;;;;;;4985961;28;20047;-85
2023/03/12 04:48:57;;;;;;;7.53;5.78;;;0.30;99.90;;;;;;4986437;28;20536;-85
2023/03/12 04:51:23;;;;;;;11.95;5.90;;;0.30;99.90;;;;;;4970148;28;20053;-85
2023/03/12 04:53:49;;;;;;;7.03;5.50;;;0.30;99.90;;;;;;4986038;28;20082;-85
2023/03/12 04:56:14;;;;;;;8.73;5.40;;;0.30;99.90;;;;;;4984378;28;20607;-85
2023/03/12 04:58:40;;;;;;;6.57;5.10;;;0.20;99.90;;;;;;4969355;28;20054;-85
2023/03/12 05:01:10;;;;;;;9.40;5.63;;;1.00;99.90;;;;;;4986031;28;20051;-85
2023/03/12 05:03:37;;;;;;;9.98;5.35;;;0.40;99.90;;;;;;4973654;28;20047;-85
2023/03/12 05:06:02;;;;;;;7.35;5.30;;;0.40;99.90;;;;;;4983667;28;20050;-85
2023/03/12 05:08:28;;;;;;;8.07;4.82;;;0.40;99.90;;;;;;4980760;28;20472;-85
2023/03/12 05:10:54;;;;;;;8.73;5.22;;;0.40;99.90;;;;;;4987993;28;20065;-85
2023/03/12 05:13:21;;;;;;;8.23;4.90;;;0.40;99.90;;;;;;4988056;28;20512;-85
2023/03/12 05:15:50;;;;;;;9.65;5.03;;;0.50;99.90;;;;;;4986762;28;20050;-85
2023/03/12 05:18:19;;;;;;;7.88;5.20;;;0.40;99.90;;;;;;4987989;28;20454;-86
2023/03/12 05:20:44;;;;;;;8.57;5.43;;;0.50;99.90;;;;;;4987776;28;20234;-86
2023/03/12 05:23:10;;;;;;;10.13;5.90;;;0.40;99.90;;;;;;4969854;28;20050;-85
2023/03/12 05:25:41;;;;;;;9.02;5.90;;;0.50;99.90;;;;;;4989673;28;20057;-85
2023/03/12 05:28:07;;;;;;;12.27;5.63;;;0.50;99.90;;;;;;4990151;28;20046;-85
2023/03/12 05:30:33;;;;;;;7.47;5.40;;;0.50;99.90;;;;;;4988811;28;20810;-86
2023/03/12 05:32:59;;;;;;;7.50;6.07;;;0.50;99.90;;;;;;4990822;28;20050;-86
2023/03/12 05:35:24;;;;;;;7.97;5.45;;;0.50;99.90;;;;;;4991372;28;20055;-85
2023/03/12 05:37:50;;;;;;;7.78;5.25;;;0.50;99.90;;;;;;4988992;28;20128;-86
2023/03/12 05:40:15;;;;;;;10.65;5.53;;;0.50;99.90;;;;;;4990176;28;20489;-85
2023/03/12 05:42:41;;;;;;;7.65;5.80;;;0.70;99.90;;;;;;4990913;28;20081;-85
2023/03/12 05:45:07;;;;;;;9.02;5.70;;;0.60;99.90;;;;;;4991283;28;20038;-85
2023/03/12 05:47:33;;;;;;;10.50;5.72;;;0.60;99.90;;;;;;4990027;28;20056;-85
2023/03/12 05:49:58;;;;;;;8.43;6.10;;;0.60;99.90;;;;;;4990141;28;20058;-86
2023/03/12 05:52:24;;;;;;;8.65;5.50;;;0.60;99.90;;;;;;4991201;28;20053;-85
2023/03/12 05:54:51;;;;;;;9.57;6.13;;;0.50;99.90;;;;;;4991084;28;20046;-86
2023/03/12 05:57:17;;;;;;;9.05;5.55;;;0.60;99.90;;;;;;4989545;28;20157;-85
2023/03/12 05:59:42;;;;;;;8.32;5.72;;;0.60;99.90;;;;;;4990672;28;20153;-85
2023/03/12 06:02:08;;;;;;;9.38;5.85;;;0.60;99.90;;;;;;4989642;28;20441;-85
2023/03/12 06:04:34;;;;;;;9.80;6.38;;;0.60;99.90;;;;;;4991076;28;20498;-85
2023/03/12 06:06:59;;;;;;;9.90;6.13;;;0.60;99.90;;;;;;4989634;28;20164;-85
2023/03/12 06:09:25;;;;;;;7.85;6.88;;;0.60;99.90;;;;;;4989561;28;20492;-85
2023/03/12 06:11:50;;;;;;;10.20;6.68;;;0.60;99.90;;;;;;4990819;28;20069;-85
2023/03/12 06:14:16;;;;;;;8.13;6.22;;;0.60;99.90;;;;;;4990795;28;20152;-85
2023/03/12 06:16:41;;;;;;;11.40;7.28;;;0.70;99.90;;;;;;4988529;28;20347;-85
2023/03/12 06:19:07;;;;;;;10.00;6.90;;;0.70;99.90;;;;;;4990425;28;20176;-86
2023/03/12 06:21:34;;;;;;;10.52;7.32;;;0.70;99.90;;;;;;4988586;28;20038;-86
2023/03/12 06:24:01;;;;;;;12.43;7.95;;;0.70;99.90;;;;;;4990265;28;20493;-85
2023/03/12 06:26:27;;;;;;;11.60;8.13;;;0.70;99.90;;;;;;4988653;28;20042;-86
2023/03/12 06:28:53;;;;;;;12.68;8.20;;;0.70;99.90;;;;;;4987854;28;20397;-85
2023/03/12 06:31:20;;;;;;;11.73;7.63;;;0.70;99.90;;;;;;4967140;28;20424;-86
2023/03/12 06:33:45;;;;;;;9.05;7.93;;;0.80;99.90;;;;;;4988022;28;20057;-86
2023/03/12 06:36:11;;;;;;;10.15;8.13;;;0.80;99.90;;;;;;4983791;28;20046;-86
2023/03/12 06:38:38;;;;;;;11.73;8.20;;;0.80;99.90;;;;;;4986456;28;20061;-86
2023/03/12 06:41:09;;;;;;;13.32;8.60;;;0.80;99.90;;;;;;4987277;28;20058;-86
2023/03/12 06:43:36;;;;;;;10.55;7.90;;;0.80;99.90;;;;;;4981603;28;20050;-86
2023/03/12 06:46:03;;;;;;;10.77;7.53;;;0.90;99.90;;;;;;4971769;28;20500;-86
2023/03/12 06:48:32;;;;;;;10.20;8.02;;;0.90;99.90;;;;;;4989890;28;20050;-87
2023/03/12 06:50:58;;;;;;;11.30;8.18;;;0.90;99.90;;;;;;4990318;28;20053;-84
2023/03/12 06:53:24;;;;;;;9.98;7.60;;;0.90;99.90;;;;;;4987938;28;20038;-85
2023/03/12 06:55:50;;;;;;;10.43;8.40;;;1.60;99.90;;;;;;4971287;28;20400;-84
2023/03/12 06:58:17;;;;;;;10.60;7.53;;;1.00;99.90;;;;;;4989822;28;20137;-86
2023/03/12 07:00:42;;;;;;;14.77;8.63;;;1.00;99.90;;;;;;4989716;28;20484;-84
2023/03/12 07:03:08;;;;;;;14.55;7.43;;;1.00;99.90;;;;;;4986177;28;20046;-85
2023/03/12 07:05:34;;;;;;;10.65;6.95;;;1.10;99.90;;;;;;4989180;28;20114;-86
2023/03/12 07:08:00;;;;;;;12.98;7.22;;;1.10;99.90;;;;;;4987746;28;20612;-86
2023/03/12 07:10:46;;;;;;;9.75;7.75;;;1.10;99.90;;;;;;4990024;28;20038;-87
2023/03/12 07:13:13;;;;;;;9.60;7.07;;;1.70;99.90;;;;;;4988039;28;20050;-86
2023/03/12 07:15:39;;;;;;;13.30;7.85;;;1.10;99.90;;;;;;4988732;28;20616;-85
2023/03/12 07:18:10;;;;;;;14.40;7.75;;;1.20;99.90;;;;;;4988499;28;20057;-86
2023/03/12 07:20:38;;;;;;;12.80;8.90;;;1.20;99.90;;;;;;4988528;28;20130;-86
2023/03/12 07:23:04;;;;;;;9.77;7.57;;;1.30;99.90;;;;;;4989489;28;20038;-86
2023/03/12 07:25:30;;;;;;;9.50;7.15;;;1.30;99.90;;;;;;4987370;28;20516;-86
2023/03/12 07:27:55;;;;;;;11.13;7.90;;;1.30;99.90;;;;;;4989457;28;20046;-86
2023/03/12 07:30:21;;;;;;;9.35;7.53;;;1.30;99.90;;;;;;4989444;28;20128;-86
2023/03/12 07:32:47;;;;;;;8.55;7.05;;;1.30;99.90;;;;;;4988908;28;20527;-85
2023/03/12 07:35:13;;;;;;;12.57;7.63;;;2.20;99.90;;;;;;4987285;28;20157;-87
2023/03/12 07:37:38;;;;;;;14.57;7.63;;;1.40;99.90;;;;;;4987666;28;20047;-86
2023/03/12 07:40:09;;;;;;;9.02;7.18;;;1.40;99.90;;;;;;4989731;28;20366;-89
2023/03/12 07:42:35;;;;;;;11.98;8.00;;;1.40;99.90;;;;;;4987258;28;20082;-86
2023/03/12 07:45:00;;;;;;;9.77;7.88;;;1.40;99.90;;;;;;4989197;28;20078;-87
2023/03/12 07:47:26;;;;;;;11.82;8.20;;;1.40;99.90;;;;;;4987205;28;20050;-87
2023/03/12 07:49:52;;;;;;;9.13;8.23;;;1.40;99.90;;;;;;4989306;28;20108;-87
2023/03/12 07:52:19;;;;;;;11.70;8.52;;;1.50;99.90;;;;;;4988897;28;20108;-86
2023/03/12 07:54:44;;;;;;;9.63;7.53;;;1.50;99.90;;;;;;4989466;28;20113;-85
2023/03/12 07:57:10;;;;;;;12.75;8.35;;;1.50;99.90;;;;;;4987341;28;20192;-86
2023/03/12 07:59:36;;;;;;;10.45;7.97;;;1.50;99.90;;;;;;4985428;28;20050;-87
2023/03/12 08:02:04;;;;;;;9.45;7.80;;;1.50;99.90;;;;;;4981664;28;20158;-87
2023/03/12 08:04:29;;;;;;;14.27;8.38;;;1.60;99.90;;;;;;4987533;28;20042;-86
2023/03/12 08:06:55;;;;;;;10.48;7.78;;;1.50;99.90;;;;;;4972650;28;20466;-88
2023/03/12 08:09:21;;;;;;;9.35;7.57;;;1.50;99.90;;;;;;4978560;28;20129;-87
2023/03/12 08:11:47;;;;;;;12.00;8.20;;;1.50;99.90;;;;;;4987804;28;20072;-88
2023/03/12 08:14:12;;;;;;;13.05;7.90;;;1.50;99.90;;;;;;4984715;28;20050;-87
2023/03/12 08:16:38;;;;;;;9.63;7.57;;;1.50;99.90;;;;;;4987656;28;20405;-88
2023/03/12 08:19:03;;;;;;;13.90;8.05;;;1.60;99.90;;;;;;4988816;28;20057;-87
2023/03/12 08:21:29;;;;;;;10.98;7.93;;;1.60;99.90;;;;;;4987115;28;20057;-87
2023/03/12 08:23:57;;;;;;;9.23;7.95;;;1.70;99.90;;;;;;4971321;28;20081;-88
2023/03/12 08:26:23;;;;;;;11.90;8.23;;;1.70;99.90;;;;;;4989368;28;20046;-89
2023/03/12 08:28:49;;;;;;;7.65;6.90;;;1.70;99.90;;;;;;4986980;28;20050;-88
2023/03/12 08:31:14;;;;;;;10.75;8.15;;;2.10;99.90;;;;;;4977081;28;20042;-89
2023/03/12 08:33:42;;;;;;;8.65;6.93;;;1.70;99.90;;;;;;4986300;28;20121;-89
2023/03/12 08:36:09;;;;;;;10.90;7.85;;;1.90;99.90;;;;;;4988012;28;20054;-87
2023/03/12 08:38:35;;;;;;;13.95;7.15;;;1.90;99.90;;;;;;4983780;28;20046;-88
2023/03/12 08:41:00;;;;;;;10.32;7.20;;;1.70;99.90;;;;;;4988223;28;20121;-87
2023/03/12 08:43:27;;;;;;;8.52;6.63;;;1.80;99.90;;;;;;4988500;28;20050;-88
2023/03/12 08:45:57;;;;;;;8.55;6.78;;;1.20;99.90;;;;;;4988911;28;20074;-88
2023/03/12 08:48:23;;;;;;;10.30;6.20;;;1.90;99.90;;;;;;4986443;28;20960;-88
2023/03/12 08:50:57;;;;;;;10.60;6.78;;;1.90;99.90;;;;;;4988020;28;20086;-87
2023/03/12 08:53:23;;;;;;;9.95;6.40;;;1.90;99.90;;;;;;4987808;28;20051;-87
2023/03/12 08:55:52;;;;;;;9.52;6.47;;;1.90;99.90;;;;;;4987289;28;20038;-85
2023/03/12 08:58:21;;;;;;;9.63;7.22;;;1.90;99.90;;;;;;4985288;28;20042;-87
2023/03/12 09:00:46;;;;;;;11.05;7.25;;;1.90;99.90;;;;;;4992711;28;20084;-86
2023/03/12 09:03:13;;;;;;;9.38;7.50;;;1.90;99.90;;;;;;4992438;28;20086;-88
2023/03/12 09:05:40;;;;;;;9.68;6.80;;;1.90;99.90;;;;;;4988448;28;20109;-88
2023/03/12 09:08:06;;;;;;;8.05;7.13;;;1.90;99.90;;;;;;4981892;28;20103;-88
2023/03/12 09:10:32;;;;;;;10.48;7.57;;;1.90;99.90;;;;;;4988922;28;20154;-87
2023/03/12 09:12:58;;;;;;;11.07;8.13;;;1.90;99.90;;;;;;4990699;28;20074;-87
2023/03/12 09:15:23;;;;;;;11.52;7.45;;;1.90;99.90;;;;;;4987382;28;20038;-88
2023/03/12 09:17:51;;;;;;;8.38;7.57;;;1.90;99.90;;;;;;4988624;28;20042;-88
2023/03/12 09:20:16;;;;;;;11.75;7.22;;;1.90;99.90;;;;;;4990304;28;20085;-90
2023/03/12 09:22:43;;;;;;;10.80;8.15;;;1.90;99.90;;;;;;4990848;28;20081;-87
2023/03/12 09:25:10;;;;;;;8.48;7.65;;;1.90;99.90;;;;;;4992668;28;20046;-89
2023/03/12 09:27:41;;;;;;;8.65;7.47;;;2.00;99.90;;;;;;4992488;28;20053;-89
2023/03/12 09:30:09;;;;;;;12.48;7.97;;;2.00;99.90;;;;;;4992909;28;20589;-90
2023/03/12 09:32:38;;;;;;;11.50;8.82;;;2.00;99.90;;;;;;4989889;28;20043;-90
2023/03/12 09:35:05;;;;;;;9.40;8.40;;;2.00;99.90;;;;;;4988371;28;20050;-89
2023/03/12 09:37:34;;;;;;;10.43;8.13;;;2.10;99.90;;;;;;4989752;28;20105;-88
2023/03/12 09:40:00;;;;;;;11.07;9.30;;;2.10;99.90;;;;;;4989754;28;20125;-88
2023/03/12 09:42:44;;;;;;;12.63;9.25;;;2.10;99.90;;;;;;4991401;28;20454;-90
2023/03/12 09:45:19;;;;;;;14.57;10.73;;;2.10;99.90;;;;;;4990177;28;20058;-91
2023/03/12 09:47:51;;;;;;;12.38;11.05;;;2.20;99.90;;;;;;4990990;28;20050;-89
2023/03/12 09:50:32;;;;;;;13.02;11.55;;;2.20;99.90;;;;;;4991170;28;20046;-91
2023/03/12 09:53:09;;;;;;;14.18;11.43;;;2.20;99.90;;;;;;4992150;28;20105;-89
2023/03/12 09:55:37;;;;;;;17.55;11.98;;;2.20;99.90;;;;;;4990951;28;20200;-90
2023/03/12 09:58:03;;;;;;;15.43;12.35;;;2.20;99.90;;;;;;4991159;28;20051;-90
2023/03/12 10:00:32;;;;;;;15.32;12.40;;;2.20;99.90;;;;;;4992135;28;20382;-90
2023/03/12 10:03:13;;;;;;;19.20;12.93;;;2.20;99.90;;;;;;4992505;28;20057;-90
2023/03/12 10:06:04;;;;;;;15.40;12.57;;;2.20;99.90;;;;;;4990824;28;20133;-88
2023/03/12 10:08:55;;;;;;;16.05;12.38;;;2.20;99.90;;;;;;4989297;28;20046;-89
2023/03/12 10:11:31;;;;;;;17.60;13.68;;;2.30;99.90;;;;;;4986178;28;20373;-87
2023/03/12 10:14:02;;;;;;;18.00;13.73;;;2.30;99.90;;;;;;4989611;28;20042;-86
2023/03/12 10:17:00;;;;;;;17.17;14.47;;;2.30;99.90;;;;;;4989168;28;20173;-87
2023/03/12 10:19:44;;;;;;;18.02;12.82;;;2.40;99.90;;;;;;4987307;28;20460;-86
2023/03/12 10:22:51;;;;;;;14.45;12.43;;;2.40;99.90;;;;;;4990523;28;20054;-85
2023/03/12 10:25:38;;;;;;;17.38;13.48;;;2.50;99.90;;;;;;4988374;28;20519;-84
2023/03/12 10:28:19;;;;;;;17.85;13.32;;;2.40;99.90;;;;;;4989879;28;20093;-86
2023/03/12 10:30:51;;;;;;;17.85;14.20;;;2.50;99.90;;;;;;4990418;28;20042;-86
2023/03/12 10:33:18;;;;;;;19.60;13.68;;;2.50;99.90;;;;;;4988057;28;20054;-86
2023/03/12 10:35:45;;;;;;;16.92;14.35;;;2.50;99.90;;;;;;4990721;28;20049;-85
2023/03/12 10:38:16;;;;;;;19.02;13.95;;;2.60;99.90;;;;;;4989725;28;20505;-85
2023/03/12 10:40:42;;;;;;;17.97;14.27;;;2.60;99.90;;;;;;4988589;28;20511;-87
2023/03/12 10:43:08;;;;;;;18.23;14.98;;;2.60;99.90;;;;;;4986945;28;20130;-85
2023/03/12 10:45:59;;;;;;;17.75;14.18;;;2.70;99.90;;;;;;4990134;28;20046;-86
2023/03/12 10:48:25;;;;;;;20.20;14.48;;;2.70;99.90;;;;;;4989963;28;20192;-87
2023/03/12 10:51:11;;;;;;;18.00;14.25;;;2.80;99.90;;;;;;4987319;28;20449;-85
2023/03/12 10:53:43;;;;;;;16.38;13.43;;;3.30;99.90;;;;;;4969343;28;20051;-86
2023/03/12 10:56:19;;;;;;;15.75;12.98;;;2.90;99.90;;;;;;4989998;28;20556;-87
2023/03/12 10:58:48;;;;;;;16.30;12.40;;;2.90;99.90;;;;;;4989851;28;20046;-87
2023/03/12 11:01:24;;;;;;;13.25;11.23;;;2.90;99.90;;;;;;4986234;28;20236;-85
2023/03/12 11:03:52;;;;;;;17.52;13.57;;;3.00;99.90;;;;;;4989057;28;20059;-87
2023/03/12 11:06:27;;;;;;;19.23;13.95;;;3.00;99.90;;;;;;4989783;28;20073;-86
2023/03/12 11:09:06;;;;;;;13.38;10.63;;;3.10;99.90;;;;;;4988557;28;20489;-86
2023/03/12 11:11:34;;;;;;;11.52;10.32;;;3.10;99.90;;;;;;4966222;28;20050;-88
2023/03/12 11:14:21;;;;;;;12.18;10.85;;;3.20;99.90;;;;;;4972993;28;20126;-89
2023/03/12 11:16:48;;;;;;;13.40;10.10;;;3.20;99.90;;;;;;4973590;28;20046;-89
2023/03/12 11:19:26;;;;;;;14.18;10.07;;;3.20;99.90;;;;;;4992608;28;20042;-91
2023/03/12 11:22:03;;;;;;;13.55;10.30;;;3.30;99.90;;;;;;4984189;28;20077;-88
2023/03/12 11:24:29;;;;;;;12.68;9.68;;;3.40;99.90;;;;;;4989262;28;20046;-92
2023/03/12 11:27:04;;;;;;;12.40;9.93;;;3.50;99.90;;;;;;4992018;28;20560;-92
2023/03/12 11:29:35;;;;;;;14.93;9.85;;;3.50;99.90;;;;;;4987200;28;20078;-91
2023/03/12 11:32:23;;;;;;;13.05;10.20;;;3.60;99.90;;;;;;4990144;28;20085;-91
2023/03/12 11:34:51;;;;;;;12.23;10.30;;;3.60;99.90;;;;;;4990724;28;20484;-91
2023/03/12 11:37:35;;;;;;;11.38;9.48;;;4.00;99.90;;;;;;4988624;28;20129;-91
2023/03/12 11:40:25;;;;;;;13.70;9.63;;;3.80;99.90;;;;;;4990891;28;20208;-90
2023/03/12 11:43:06;;;;;;;14.40;11.05;;;4.30;99.90;;;;;;4990188;28;20062;-89
2023/03/12 11:45:55;;;;;;;16.88;10.05;;;4.00;99.90;;;;;;4988417;28;20153;-90
2023/03/12 11:48:32;;;;;;;15.57;10.68;;;4.10;99.90;;;;;;4976149;28;20051;-90
2023/03/12 11:51:26;;;;;;;13.63;10.00;;;4.20;99.90;;;;;;4968740;28;20137;-88
2023/03/12 11:54:29;;;;;;;13.18;10.18;;;4.30;99.90;;;;;;4985730;28;20074;-89
2023/03/12 11:57:01;;;;;;;14.50;9.68;;;4.40;99.90;;;;;;4969508;28;20054;-89
2023/03/12 11:59:33;;;;;;;18.33;11.75;;;4.60;99.90;;;;;;4951629;28;21060;-89
2023/03/12 12:02:16;;;;;;;51.97;24.38;;;4.80;99.90;;;;;;4972954;28;20046;-87
2023/03/12 12:04:56;;;;;;;15.45;10.77;;;4.90;99.90;;;;;;4989501;28;20108;-94
2023/03/12 12:07:30;;;;;;;14.50;10.85;;;4.90;99.90;;;;;;4989211;28;20046;-90
2023/03/12 12:10:00;;;;;;;17.90;10.40;;;5.40;99.90;;;;;;4988987;28;20215;-89
2023/03/12 12:12:39;;;;;;;15.77;10.95;;;5.40;99.90;;;;;;4987105;28;20092;-88
2023/03/12 12:15:07;;;;;;;15.55;11.07;;;5.00;99.90;;;;;;4989374;28;20047;-90
2023/03/12 12:18:12;;;;;;;13.00;10.23;;;5.00;99.90;;;;;;4987514;28;20085;-90
2023/03/12 12:21:01;;;;;;;14.63;9.77;;;5.10;99.90;;;;;;4973673;28;20050;-89
2023/03/12 12:23:50;;;;;;;14.27;10.45;;;5.10;99.90;;;;;;4972827;28;20050;-90
2023/03/12 12:26:35;;;;;;;14.18;10.27;;;5.10;99.90;;;;;;4973905;28;20074;-90
2023/03/12 12:29:04;;;;;;;14.48;11.25;;;5.30;99.90;;;;;;4976611;28;20201;-92
2023/03/12 12:31:36;;;;;;;18.27;11.15;;;5.30;99.90;;;;;;4989601;28;20396;-86
2023/03/12 12:34:28;;;;;;;14.73;10.70;;;5.30;99.90;;;;;;4989558;28;20065;-89
2023/03/12 12:37:17;;;;;;;16.27;10.98;;;5.50;99.90;;;;;;4993668;28;21620;-89
2023/03/12 12:40:15;;;;;;;14.38;9.95;;;5.50;99.90;;;;;;4976443;28;20085;-90
2023/03/12 12:43:05;;;;;;;14.90;9.82;;;5.60;99.90;;;;;;4992621;28;20367;-89
2023/03/12 12:45:32;;;;;;;15.90;9.90;;;5.60;99.90;;;;;;4993334;28;20070;-87
2023/03/12 12:48:27;;;;;;;15.68;11.10;;;5.70;99.90;;;;;;4993141;28;20568;-89
2023/03/12 12:50:54;;;;;;;15.60;10.27;;;5.80;99.90;;;;;;4993199;28;20058;-89
2023/03/12 12:53:48;;;;;;;17.88;10.63;;;6.10;99.90;;;;;;4990291;28;20054;-89
2023/03/12 12:56:21;;;;;;;16.67;11.13;;;6.30;99.90;;;;;;4990719;28;20628;-88
2023/03/12 12:59:08;;;;;;;20.05;10.93;;;6.70;99.90;;;;;;4989941;28;20504;-88